sensor_id;sensor_type;location;lat;lon;timestamp;pressure;altitude;pressure_sealevel;temperature
68027;BMP180;54819;48.030;14.710;2023-06-22T00:01:19;97887.20;;;22.00
68027;BMP180;54819;48.030;14.710;2023-06-22T00:03:47;97885.60;;;22.00
68027;BMP180;54819;48.030;14.710;2023-06-22T00:06:14;97879.20;;;22.00
68027;BMP180;54819;48.030;14.710;2023-06-22T00:08:41;97875.80;;;21.96
68027;BMP180;54819;48.030;14.710;2023-06-22T00:11:08;97867.40;;;21.90
68027;BMP180;54819;48.030;14.710;2023-06-22T00:13:35;97862.60;;;21.90
68027;BMP180;54819;48.030;14.710;2023-06-22T00:16:02;97864.00;;;21.90
68027;BMP180;54819;48.030;14.710;2023-06-22T00:18:29;97859.60;;;21.80
68027;BMP180;54819;48.030;14.710;2023-06-22T00:20:57;97852.20;;;21.80
68027;BMP180;54819;48.030;14.710;2023-06-22T00:23:25;97844.80;;;21.80
68027;BMP180;54819;48.030;14.710;2023-06-22T00:25:52;97839.40;;;21.74
68027;BMP180;54819;48.030;14.710;2023-06-22T00:28:19;97837.20;;;21.70
68027;BMP180;54819;48.030;14.710;2023-06-22T00:30:46;97835.60;;;21.70
68027;BMP180;54819;48.030;14.710;2023-06-22T00:33:14;97836.20;;;21.70
68027;BMP180;54819;48.030;14.710;2023-06-22T00:35:43;97833.00;;;21.70
68027;BMP180;54819;48.030;14.710;2023-06-22T00:38:09;97828.80;;;21.60
68027;BMP180;54819;48.030;14.710;2023-06-22T00:40:36;97821.20;;;21.60
68027;BMP180;54819;48.030;14.710;2023-06-22T00:43:03;97817.20;;;21.60
68027;BMP180;54819;48.030;14.710;2023-06-22T00:45:31;97809.60;;;21.60
68027;BMP180;54819;48.030;14.710;2023-06-22T00:47:58;97801.60;;;21.50
68027;BMP180;54819;48.030;14.710;2023-06-22T00:50:31;97797.40;;;21.50
68027;BMP180;54819;48.030;14.710;2023-06-22T00:53:05;97799.40;;;21.50
68027;BMP180;54819;48.030;14.710;2023-06-22T00:55:37;97800.40;;;21.50
68027;BMP180;54819;48.030;14.710;2023-06-22T00:58:09;97797.00;;;21.50
68027;BMP180;54819;48.030;14.710;2023-06-22T01:00:40;97793.80;;;21.42
68027;BMP180;54819;48.030;14.710;2023-06-22T01:03:08;97796.00;;;21.40
68027;BMP180;54819;48.030;14.710;2023-06-22T01:05:37;97790.60;;;21.40
68027;BMP180;54819;48.030;14.710;2023-06-22T01:11:36;97789.20;;;21.40
68027;BMP180;54819;48.030;14.710;2023-06-22T01:14:15;97784.80;;;21.40
68027;BMP180;54819;48.030;14.710;2023-06-22T01:16:46;97792.80;;;21.40
68027;BMP180;54819;48.030;14.710;2023-06-22T01:19:45;97790.60;;;21.40
68027;BMP180;54819;48.030;14.710;2023-06-22T01:22:17;97788.80;;;21.40
68027;BMP180;54819;48.030;14.710;2023-06-22T01:25:13;97789.20;;;21.40
68027;BMP180;54819;48.030;14.710;2023-06-22T01:28:09;97786.20;;;21.40
68027;BMP180;54819;48.030;14.710;2023-06-22T01:30:45;97782.00;;;21.34
68027;BMP180;54819;48.030;14.710;2023-06-22T01:33:13;97777.20;;;21.34
68027;BMP180;54819;48.030;14.710;2023-06-22T01:35:41;97770.60;;;21.30
68027;BMP180;54819;48.030;14.710;2023-06-22T01:38:09;97770.00;;;21.30
68027;BMP180;54819;48.030;14.710;2023-06-22T01:40:36;97771.40;;;21.30
68027;BMP180;54819;48.030;14.710;2023-06-22T01:43:03;97771.80;;;21.30
68027;BMP180;54819;48.030;14.710;2023-06-22T01:45:30;97773.80;;;21.20
68027;BMP180;54819;48.030;14.710;2023-06-22T01:47:57;97773.60;;;21.20
68027;BMP180;54819;48.030;14.710;2023-06-22T01:50:24;97777.00;;;21.20
68027;BMP180;54819;48.030;14.710;2023-06-22T01:52:50;97774.80;;;21.10
68027;BMP180;54819;48.030;14.710;2023-06-22T01:55:18;97777.20;;;21.10
68027;BMP180;54819;48.030;14.710;2023-06-22T01:57:47;97777.60;;;21.10
68027;BMP180;54819;48.030;14.710;2023-06-22T02:00:18;97785.20;;;21.00
68027;BMP180;54819;48.030;14.710;2023-06-22T02:02:57;97780.80;;;21.00
68027;BMP180;54819;48.030;14.710;2023-06-22T02:05:28;97767.40;;;21.00
68027;BMP180;54819;48.030;14.710;2023-06-22T02:08:09;97763.80;;;20.90
68027;BMP180;54819;48.030;14.710;2023-06-22T02:10:38;97769.40;;;20.90
68027;BMP180;54819;48.030;14.710;2023-06-22T02:13:09;97770.60;;;20.82
68027;BMP180;54819;48.030;14.710;2023-06-22T02:15:36;97777.20;;;20.80
68027;BMP180;54819;48.030;14.710;2023-06-22T02:18:03;97782.40;;;20.70
68027;BMP180;54819;48.030;14.710;2023-06-22T02:20:30;97786.20;;;20.70
68027;BMP180;54819;48.030;14.710;2023-06-22T02:22:57;97782.20;;;20.60
68027;BMP180;54819;48.030;14.710;2023-06-22T02:25:24;97785.80;;;20.60
68027;BMP180;54819;48.030;14.710;2023-06-22T02:27:50;97793.60;;;20.60
68027;BMP180;54819;48.030;14.710;2023-06-22T02:30:17;97796.40;;;20.50
68027;BMP180;54819;48.030;14.710;2023-06-22T02:32:44;97798.00;;;20.50
68027;BMP180;54819;48.030;14.710;2023-06-22T02:35:14;97806.20;;;20.40
68027;BMP180;54819;48.030;14.710;2023-06-22T02:37:41;97797.20;;;20.40
68027;BMP180;54819;48.030;14.710;2023-06-22T02:40:09;97791.00;;;20.40
68027;BMP180;54819;48.030;14.710;2023-06-22T02:42:37;97782.80;;;20.30
68027;BMP180;54819;48.030;14.710;2023-06-22T02:45:04;97783.40;;;20.30
68027;BMP180;54819;48.030;14.710;2023-06-22T02:47:31;97786.60;;;20.30
68027;BMP180;54819;48.030;14.710;2023-06-22T02:49:59;97780.60;;;20.20
68027;BMP180;54819;48.030;14.710;2023-06-22T02:52:25;97779.80;;;20.20
68027;BMP180;54819;48.030;14.710;2023-06-22T02:54:52;97781.00;;;20.20
68027;BMP180;54819;48.030;14.710;2023-06-22T02:57:19;97773.20;;;20.20
68027;BMP180;54819;48.030;14.710;2023-06-22T02:59:46;97769.20;;;20.14
68027;BMP180;54819;48.030;14.710;2023-06-22T03:02:12;97774.60;;;20.10
68027;BMP180;54819;48.030;14.710;2023-06-22T03:04:39;97772.20;;;20.10
68027;BMP180;54819;48.030;14.710;2023-06-22T03:07:06;97766.60;;;20.10
68027;BMP180;54819;48.030;14.710;2023-06-22T03:09:33;97762.40;;;20.10
68027;BMP180;54819;48.030;14.710;2023-06-22T03:12:00;97763.40;;;20.10
68027;BMP180;54819;48.030;14.710;2023-06-22T03:14:35;97757.40;;;20.10
68027;BMP180;54819;48.030;14.710;2023-06-22T03:17:02;97750.60;;;20.10
68027;BMP180;54819;48.030;14.710;2023-06-22T03:19:29;97747.20;;;20.10
68027;BMP180;54819;48.030;14.710;2023-06-22T03:21:59;97749.40;;;20.14
68027;BMP180;54819;48.030;14.710;2023-06-22T03:24:26;97748.40;;;20.18
68027;BMP180;54819;48.030;14.710;2023-06-22T03:26:55;97740.60;;;20.20
68027;BMP180;54819;48.030;14.710;2023-06-22T03:29:23;97739.00;;;20.20
68027;BMP180;54819;48.030;14.710;2023-06-22T03:31:50;97743.00;;;20.22
68027;BMP180;54819;48.030;14.710;2023-06-22T03:34:17;97734.80;;;20.30
68027;BMP180;54819;48.030;14.710;2023-06-22T03:36:45;97726.40;;;20.40
68027;BMP180;54819;48.030;14.710;2023-06-22T03:39:12;97719.20;;;20.40
68027;BMP180;54819;48.030;14.710;2023-06-22T03:41:39;97721.80;;;20.50
68027;BMP180;54819;48.030;14.710;2023-06-22T03:44:05;97718.00;;;20.60
68027;BMP180;54819;48.030;14.710;2023-06-22T03:46:32;97725.00;;;20.60
68027;BMP180;54819;48.030;14.710;2023-06-22T03:48:59;97720.60;;;20.70
68027;BMP180;54819;48.030;14.710;2023-06-22T03:51:27;97718.60;;;20.74
68027;BMP180;54819;48.030;14.710;2023-06-22T03:53:54;97717.80;;;20.72
68027;BMP180;54819;48.030;14.710;2023-06-22T03:56:21;97719.80;;;20.70
68027;BMP180;54819;48.030;14.710;2023-06-22T03:58:47;97720.20;;;20.74
68027;BMP180;54819;48.030;14.710;2023-06-22T04:01:14;97720.80;;;20.70
68027;BMP180;54819;48.030;14.710;2023-06-22T04:03:43;97717.60;;;20.72
68027;BMP180;54819;48.030;14.710;2023-06-22T04:06:10;97715.40;;;20.72
68027;BMP180;54819;48.030;14.710;2023-06-22T04:08:36;97728.20;;;20.80
68027;BMP180;54819;48.030;14.710;2023-06-22T04:11:03;97724.80;;;20.80
68027;BMP180;54819;48.030;14.710;2023-06-22T04:13:30;97725.80;;;20.84
68027;BMP180;54819;48.030;14.710;2023-06-22T04:15:56;97730.60;;;20.90
68027;BMP180;54819;48.030;14.710;2023-06-22T04:18:23;97728.40;;;21.00
68027;BMP180;54819;48.030;14.710;2023-06-22T04:20:50;97727.20;;;21.10
68027;BMP180;54819;48.030;14.710;2023-06-22T04:23:16;97728.20;;;21.20
68027;BMP180;54819;48.030;14.710;2023-06-22T04:25:43;97726.20;;;21.30
68027;BMP180;54819;48.030;14.710;2023-06-22T04:28:10;97723.40;;;21.40
68027;BMP180;54819;48.030;14.710;2023-06-22T04:30:39;97725.20;;;21.56
68027;BMP180;54819;48.030;14.710;2023-06-22T04:33:16;97724.40;;;21.70
68027;BMP180;54819;48.030;14.710;2023-06-22T04:35:46;97724.40;;;21.80
68027;BMP180;54819;48.030;14.710;2023-06-22T04:38:13;97732.00;;;21.98
68027;BMP180;54819;48.030;14.710;2023-06-22T04:40:40;97732.80;;;22.10
68027;BMP180;54819;48.030;14.710;2023-06-22T04:43:06;97724.20;;;22.40
68027;BMP180;54819;48.030;14.710;2023-06-22T04:45:33;97720.20;;;23.32
68027;BMP180;54819;48.030;14.710;2023-06-22T04:48:00;97720.60;;;23.60
68027;BMP180;54819;48.030;14.710;2023-06-22T04:50:26;97702.80;;;24.40
68027;BMP180;54819;48.030;14.710;2023-06-22T04:52:54;97699.00;;;25.44
68027;BMP180;54819;48.030;14.710;2023-06-22T04:55:20;97701.80;;;26.18
68027;BMP180;54819;48.030;14.710;2023-06-22T04:57:48;97701.80;;;27.02
68027;BMP180;54819;48.030;14.710;2023-06-22T05:00:19;97701.00;;;27.74
68027;BMP180;54819;48.030;14.710;2023-06-22T05:02:49;97697.60;;;28.50
68027;BMP180;54819;48.030;14.710;2023-06-22T05:05:16;97694.40;;;29.18
68027;BMP180;54819;48.030;14.710;2023-06-22T05:07:46;97693.40;;;29.82
68027;BMP180;54819;48.030;14.710;2023-06-22T05:10:15;97691.80;;;30.42
68027;BMP180;54819;48.030;14.710;2023-06-22T05:12:42;97695.80;;;30.94
68027;BMP180;54819;48.030;14.710;2023-06-22T05:15:08;97693.60;;;31.40
68027;BMP180;54819;48.030;14.710;2023-06-22T05:17:36;97690.40;;;31.88
68027;BMP180;54819;48.030;14.710;2023-06-22T05:20:03;97688.80;;;32.30
68027;BMP180;54819;48.030;14.710;2023-06-22T05:22:32;97696.60;;;32.42
68027;BMP180;54819;48.030;14.710;2023-06-22T05:24:59;97708.20;;;31.70
68027;BMP180;54819;48.030;14.710;2023-06-22T05:27:26;97706.40;;;30.74
68027;BMP180;54819;48.030;14.710;2023-06-22T05:29:53;97698.80;;;29.96
68027;BMP180;54819;48.030;14.710;2023-06-22T05:32:19;97696.40;;;29.50
68027;BMP180;54819;48.030;14.710;2023-06-22T05:34:46;97689.80;;;29.16
68027;BMP180;54819;48.030;14.710;2023-06-22T05:37:13;97691.60;;;28.84
68027;BMP180;54819;48.030;14.710;2023-06-22T05:39:40;97688.60;;;28.58
68027;BMP180;54819;48.030;14.710;2023-06-22T05:42:07;97689.40;;;28.20
68027;BMP180;54819;48.030;14.710;2023-06-22T05:44:36;97688.40;;;27.90
68027;BMP180;54819;48.030;14.710;2023-06-22T05:47:03;97684.00;;;27.70
68027;BMP180;54819;48.030;14.710;2023-06-22T05:49:30;97684.80;;;27.50
68027;BMP180;54819;48.030;14.710;2023-06-22T05:51:59;97680.20;;;27.30
68027;BMP180;54819;48.030;14.710;2023-06-22T05:54:30;97673.60;;;27.10
68027;BMP180;54819;48.030;14.710;2023-06-22T05:56:57;97664.40;;;26.96
68027;BMP180;54819;48.030;14.710;2023-06-22T05:59:23;97665.60;;;26.82
68027;BMP180;54819;48.030;14.710;2023-06-22T06:01:50;97664.40;;;26.70
68027;BMP180;54819;48.030;14.710;2023-06-22T06:04:18;97662.80;;;26.70
68027;BMP180;54819;48.030;14.710;2023-06-22T06:06:45;97663.40;;;26.70
68027;BMP180;54819;48.030;14.710;2023-06-22T06:09:14;97660.80;;;26.68
68027;BMP180;54819;48.030;14.710;2023-06-22T06:11:41;97658.60;;;26.70
68027;BMP180;54819;48.030;14.710;2023-06-22T06:14:07;97656.80;;;26.60
68027;BMP180;54819;48.030;14.710;2023-06-22T06:16:34;97656.60;;;26.60
68027;BMP180;54819;48.030;14.710;2023-06-22T06:19:01;97662.40;;;26.60
68027;BMP180;54819;48.030;14.710;2023-06-22T06:21:27;97664.00;;;26.60
68027;BMP180;54819;48.030;14.710;2023-06-22T06:23:56;97660.80;;;26.66
68027;BMP180;54819;48.030;14.710;2023-06-22T06:26:23;97660.40;;;26.60
68027;BMP180;54819;48.030;14.710;2023-06-22T06:28:56;97657.20;;;26.60
68027;BMP180;54819;48.030;14.710;2023-06-22T06:31:23;97663.00;;;26.60
68027;BMP180;54819;48.030;14.710;2023-06-22T06:33:50;97657.80;;;26.60
68027;BMP180;54819;48.030;14.710;2023-06-22T06:36:16;97654.20;;;26.60
68027;BMP180;54819;48.030;14.710;2023-06-22T06:38:43;97653.60;;;26.60
68027;BMP180;54819;48.030;14.710;2023-06-22T06:41:10;97656.40;;;26.70
68027;BMP180;54819;48.030;14.710;2023-06-22T06:43:36;97660.00;;;26.70
68027;BMP180;54819;48.030;14.710;2023-06-22T06:46:03;97659.00;;;26.70
68027;BMP180;54819;48.030;14.710;2023-06-22T06:48:30;97658.60;;;26.72
68027;BMP180;54819;48.030;14.710;2023-06-22T06:50:57;97660.40;;;26.80
68027;BMP180;54819;48.030;14.710;2023-06-22T06:53:23;97656.20;;;26.90
68027;BMP180;54819;48.030;14.710;2023-06-22T06:55:50;97649.60;;;27.00
68027;BMP180;54819;48.030;14.710;2023-06-22T06:58:17;97645.60;;;27.08
68027;BMP180;54819;48.030;14.710;2023-06-22T07:00:44;97644.00;;;27.10
68027;BMP180;54819;48.030;14.710;2023-06-22T07:03:10;97642.00;;;27.12
68027;BMP180;54819;48.030;14.710;2023-06-22T07:05:37;97640.00;;;27.16
68027;BMP180;54819;48.030;14.710;2023-06-22T07:08:04;97640.60;;;27.20
68027;BMP180;54819;48.030;14.710;2023-06-22T07:10:30;97638.40;;;27.20
68027;BMP180;54819;48.030;14.710;2023-06-22T07:12:58;97640.80;;;27.20
68027;BMP180;54819;48.030;14.710;2023-06-22T07:15:24;97642.40;;;27.12
68027;BMP180;54819;48.030;14.710;2023-06-22T07:17:51;97645.20;;;27.10
68027;BMP180;54819;48.030;14.710;2023-06-22T07:20:18;97639.40;;;27.10
68027;BMP180;54819;48.030;14.710;2023-06-22T07:22:46;97642.80;;;27.16
68027;BMP180;54819;48.030;14.710;2023-06-22T07:25:13;97634.20;;;27.20
68027;BMP180;54819;48.030;14.710;2023-06-22T07:27:46;97634.80;;;27.30
68027;BMP180;54819;48.030;14.710;2023-06-22T07:30:13;97625.80;;;27.34
68027;BMP180;54819;48.030;14.710;2023-06-22T07:32:40;97625.40;;;27.50
68027;BMP180;54819;48.030;14.710;2023-06-22T07:35:08;97626.60;;;27.50
68027;BMP180;54819;48.030;14.710;2023-06-22T07:37:35;97630.40;;;27.60
68027;BMP180;54819;48.030;14.710;2023-06-22T07:40:02;97631.40;;;27.70
68027;BMP180;54819;48.030;14.710;2023-06-22T07:42:32;97634.00;;;27.70
68027;BMP180;54819;48.030;14.710;2023-06-22T07:44:59;97633.40;;;27.70
68027;BMP180;54819;48.030;14.710;2023-06-22T07:47:26;97626.60;;;27.70
68027;BMP180;54819;48.030;14.710;2023-06-22T07:49:57;97632.00;;;27.76
68027;BMP180;54819;48.030;14.710;2023-06-22T07:52:24;97623.20;;;27.70
68027;BMP180;54819;48.030;14.710;2023-06-22T07:54:54;97619.60;;;27.70
68027;BMP180;54819;48.030;14.710;2023-06-22T07:57:21;97621.60;;;27.70
68027;BMP180;54819;48.030;14.710;2023-06-22T07:59:47;97618.20;;;27.78
68027;BMP180;54819;48.030;14.710;2023-06-22T08:02:14;97620.80;;;27.70
68027;BMP180;54819;48.030;14.710;2023-06-22T08:04:41;97626.20;;;27.80
68027;BMP180;54819;48.030;14.710;2023-06-22T08:07:08;97623.00;;;27.90
68027;BMP180;54819;48.030;14.710;2023-06-22T08:09:34;97626.80;;;28.00
68027;BMP180;54819;48.030;14.710;2023-06-22T08:12:02;97632.80;;;28.00
68027;BMP180;54819;48.030;14.710;2023-06-22T08:14:29;97630.60;;;28.12
68027;BMP180;54819;48.030;14.710;2023-06-22T08:16:56;97635.40;;;28.28
68027;BMP180;54819;48.030;14.710;2023-06-22T08:19:22;97631.40;;;28.40
68027;BMP180;54819;48.030;14.710;2023-06-22T08:21:49;97628.40;;;28.40
68027;BMP180;54819;48.030;14.710;2023-06-22T08:24:16;97625.60;;;28.40
68027;BMP180;54819;48.030;14.710;2023-06-22T08:26:42;97634.40;;;28.30
68027;BMP180;54819;48.030;14.710;2023-06-22T08:29:09;97630.20;;;28.20
68027;BMP180;54819;48.030;14.710;2023-06-22T08:31:36;97629.40;;;28.00
68027;BMP180;54819;48.030;14.710;2023-06-22T08:34:03;97631.00;;;27.90
68027;BMP180;54819;48.030;14.710;2023-06-22T08:36:29;97635.20;;;27.90
68027;BMP180;54819;48.030;14.710;2023-06-22T08:38:59;97633.80;;;27.94
68027;BMP180;54819;48.030;14.710;2023-06-22T08:41:30;97631.20;;;27.90
68027;BMP180;54819;48.030;14.710;2023-06-22T08:43:57;97624.60;;;28.10
68027;BMP180;54819;48.030;14.710;2023-06-22T08:46:24;97626.20;;;28.20
68027;BMP180;54819;48.030;14.710;2023-06-22T08:48:57;97626.40;;;28.30
68027;BMP180;54819;48.030;14.710;2023-06-22T08:51:24;97627.20;;;28.46
68027;BMP180;54819;48.030;14.710;2023-06-22T08:53:51;97623.40;;;28.50
68027;BMP180;54819;48.030;14.710;2023-06-22T08:56:17;97622.00;;;28.60
68027;BMP180;54819;48.030;14.710;2023-06-22T08:58:45;97618.40;;;28.70
68027;BMP180;54819;48.030;14.710;2023-06-22T09:01:12;97618.60;;;28.70
68027;BMP180;54819;48.030;14.710;2023-06-22T09:03:38;97611.60;;;28.80
68027;BMP180;54819;48.030;14.710;2023-06-22T09:06:05;97613.40;;;28.92
68027;BMP180;54819;48.030;14.710;2023-06-22T09:08:32;97613.60;;;29.00
68027;BMP180;54819;48.030;14.710;2023-06-22T09:10:59;97607.00;;;29.10
68027;BMP180;54819;48.030;14.710;2023-06-22T09:13:26;97609.20;;;29.10
68027;BMP180;54819;48.030;14.710;2023-06-22T09:15:52;97607.60;;;29.18
68027;BMP180;54819;48.030;14.710;2023-06-22T09:18:19;97607.20;;;29.20
68027;BMP180;54819;48.030;14.710;2023-06-22T09:20:46;97606.60;;;29.20
68027;BMP180;54819;48.030;14.710;2023-06-22T09:23:12;97607.60;;;29.30
68027;BMP180;54819;48.030;14.710;2023-06-22T09:25:39;97610.00;;;29.40
68027;BMP180;54819;48.030;14.710;2023-06-22T09:28:07;97610.40;;;29.40
68027;BMP180;54819;48.030;14.710;2023-06-22T09:30:33;97616.80;;;29.40
68027;BMP180;54819;48.030;14.710;2023-06-22T09:33:00;97615.20;;;29.30
68027;BMP180;54819;48.030;14.710;2023-06-22T09:35:27;97609.20;;;29.30
68027;BMP180;54819;48.030;14.710;2023-06-22T09:37:54;97610.20;;;29.36
68027;BMP180;54819;48.030;14.710;2023-06-22T09:40:22;97608.60;;;29.30
68027;BMP180;54819;48.030;14.710;2023-06-22T09:42:48;97608.20;;;29.20
68027;BMP180;54819;48.030;14.710;2023-06-22T09:45:15;97613.60;;;29.20
68027;BMP180;54819;48.030;14.710;2023-06-22T09:47:42;97612.00;;;29.20
68027;BMP180;54819;48.030;14.710;2023-06-22T09:50:10;97607.20;;;29.20
68027;BMP180;54819;48.030;14.710;2023-06-22T09:52:36;97599.00;;;29.30
68027;BMP180;54819;48.030;14.710;2023-06-22T09:55:07;97597.20;;;29.30
68027;BMP180;54819;48.030;14.710;2023-06-22T09:57:34;97593.80;;;29.40
68027;BMP180;54819;48.030;14.710;2023-06-22T10:00:00;97596.60;;;29.50
68027;BMP180;54819;48.030;14.710;2023-06-22T10:02:31;97597.40;;;29.60
68027;BMP180;54819;48.030;14.710;2023-06-22T10:04:59;97596.00;;;29.70
68027;BMP180;54819;48.030;14.710;2023-06-22T10:07:26;97596.80;;;29.66
68027;BMP180;54819;48.030;14.710;2023-06-22T10:09:52;97594.00;;;29.70
68027;BMP180;54819;48.030;14.710;2023-06-22T10:12:19;97591.20;;;29.66
68027;BMP180;54819;48.030;14.710;2023-06-22T10:14:46;97586.60;;;29.64
68027;BMP180;54819;48.030;14.710;2023-06-22T10:17:12;97593.20;;;29.70
68027;BMP180;54819;48.030;14.710;2023-06-22T10:19:39;97593.20;;;29.70
68027;BMP180;54819;48.030;14.710;2023-06-22T10:22:08;97591.00;;;29.70
68027;BMP180;54819;48.030;14.710;2023-06-22T10:24:34;97590.20;;;29.70
68027;BMP180;54819;48.030;14.710;2023-06-22T10:27:01;97584.60;;;29.70
68027;BMP180;54819;48.030;14.710;2023-06-22T10:29:27;97583.60;;;29.70
68027;BMP180;54819;48.030;14.710;2023-06-22T10:31:54;97586.80;;;29.90
68027;BMP180;54819;48.030;14.710;2023-06-22T10:34:21;97585.60;;;30.00
68027;BMP180;54819;48.030;14.710;2023-06-22T10:36:47;97581.80;;;30.00
68027;BMP180;54819;48.030;14.710;2023-06-22T10:39:15;97583.20;;;30.10
68027;BMP180;54819;48.030;14.710;2023-06-22T10:41:42;97582.80;;;30.10
68027;BMP180;54819;48.030;14.710;2023-06-22T10:44:08;97587.20;;;30.20
68027;BMP180;54819;48.030;14.710;2023-06-22T10:46:35;97591.40;;;30.30
68027;BMP180;54819;48.030;14.710;2023-06-22T10:49:02;97586.00;;;30.30
68027;BMP180;54819;48.030;14.710;2023-06-22T10:51:28;97588.40;;;30.40
68027;BMP180;54819;48.030;14.710;2023-06-22T10:53:55;97581.60;;;30.40
68027;BMP180;54819;48.030;14.710;2023-06-22T10:56:22;97580.40;;;30.48
68027;BMP180;54819;48.030;14.710;2023-06-22T10:58:49;97575.40;;;30.50
68027;BMP180;54819;48.030;14.710;2023-06-22T11:01:16;97561.80;;;30.50
68027;BMP180;54819;48.030;14.710;2023-06-22T11:04:03;97564.80;;;30.60
68027;BMP180;54819;48.030;14.710;2023-06-22T11:06:31;97568.60;;;30.60
68027;BMP180;54819;48.030;14.710;2023-06-22T11:08:57;97561.20;;;30.70
68027;BMP180;54819;48.030;14.710;2023-06-22T11:11:42;97563.00;;;30.70
68027;BMP180;54819;48.030;14.710;2023-06-22T11:14:09;97553.20;;;30.80
68027;BMP180;54819;48.030;14.710;2023-06-22T11:16:36;97551.40;;;30.80
68027;BMP180;54819;48.030;14.710;2023-06-22T11:19:04;97551.40;;;30.80
68027;BMP180;54819;48.030;14.710;2023-06-22T11:21:32;97553.60;;;30.80
68027;BMP180;54819;48.030;14.710;2023-06-22T11:24:00;97558.40;;;30.80
68027;BMP180;54819;48.030;14.710;2023-06-22T11:26:27;97553.80;;;30.80
68027;BMP180;54819;48.030;14.710;2023-06-22T11:28:54;97554.20;;;30.82
68027;BMP180;54819;48.030;14.710;2023-06-22T11:31:21;97559.60;;;30.90
68027;BMP180;54819;48.030;14.710;2023-06-22T11:33:52;97558.80;;;30.98
68027;BMP180;54819;48.030;14.710;2023-06-22T11:36:19;97556.80;;;31.00
68027;BMP180;54819;48.030;14.710;2023-06-22T11:38:46;97553.80;;;31.00
68027;BMP180;54819;48.030;14.710;2023-06-22T11:41:13;97552.20;;;31.00
68027;BMP180;54819;48.030;14.710;2023-06-22T11:43:40;97545.40;;;31.00
68027;BMP180;54819;48.030;14.710;2023-06-22T11:46:06;97546.40;;;31.00
68027;BMP180;54819;48.030;14.710;2023-06-22T11:48:33;97542.40;;;31.10
68027;BMP180;54819;48.030;14.710;2023-06-22T11:51:00;97539.40;;;31.10
68027;BMP180;54819;48.030;14.710;2023-06-22T11:53:29;97537.80;;;31.20
68027;BMP180;54819;48.030;14.710;2023-06-22T11:55:56;97533.20;;;31.20
68027;BMP180;54819;48.030;14.710;2023-06-22T11:58:23;97528.60;;;31.20
68027;BMP180;54819;48.030;14.710;2023-06-22T12:00:49;97531.60;;;31.30
68027;BMP180;54819;48.030;14.710;2023-06-22T12:03:18;97525.00;;;31.40
68027;BMP180;54819;48.030;14.710;2023-06-22T12:05:46;97526.80;;;31.50
68027;BMP180;54819;48.030;14.710;2023-06-22T12:08:13;97523.00;;;31.60
68027;BMP180;54819;48.030;14.710;2023-06-22T12:10:40;97522.00;;;31.72
68027;BMP180;54819;48.030;14.710;2023-06-22T12:13:07;97514.60;;;31.80
68027;BMP180;54819;48.030;14.710;2023-06-22T12:15:34;97506.80;;;31.90
68027;BMP180;54819;48.030;14.710;2023-06-22T12:18:00;97510.00;;;31.90
68027;BMP180;54819;48.030;14.710;2023-06-22T12:20:28;97505.60;;;32.00
68027;BMP180;54819;48.030;14.710;2023-06-22T12:22:55;97496.00;;;32.00
68027;BMP180;54819;48.030;14.710;2023-06-22T12:25:24;97495.20;;;31.90
68027;BMP180;54819;48.030;14.710;2023-06-22T12:27:52;97489.20;;;32.00
68027;BMP180;54819;48.030;14.710;2023-06-22T12:30:18;97488.80;;;32.00
68027;BMP180;54819;48.030;14.710;2023-06-22T12:32:45;97481.00;;;32.10
68027;BMP180;54819;48.030;14.710;2023-06-22T12:35:12;97481.60;;;32.20
68027;BMP180;54819;48.030;14.710;2023-06-22T12:37:41;97478.40;;;32.20
68027;BMP180;54819;48.030;14.710;2023-06-22T12:40:09;97475.60;;;32.30
68027;BMP180;54819;48.030;14.710;2023-06-22T12:42:36;97474.00;;;32.40
68027;BMP180;54819;48.030;14.710;2023-06-22T12:45:04;97477.20;;;32.50
68027;BMP180;54819;48.030;14.710;2023-06-22T12:47:31;97467.40;;;32.50
68027;BMP180;54819;48.030;14.710;2023-06-22T12:49:58;97469.60;;;32.50
68027;BMP180;54819;48.030;14.710;2023-06-22T12:52:25;97460.80;;;32.40
68027;BMP180;54819;48.030;14.710;2023-06-22T12:54:51;97458.00;;;32.50
68027;BMP180;54819;48.030;14.710;2023-06-22T12:57:21;97453.80;;;32.50
68027;BMP180;54819;48.030;14.710;2023-06-22T12:59:48;97449.80;;;32.40
68027;BMP180;54819;48.030;14.710;2023-06-22T13:02:15;97441.60;;;32.40
68027;BMP180;54819;48.030;14.710;2023-06-22T13:04:42;97440.40;;;32.34
68027;BMP180;54819;48.030;14.710;2023-06-22T13:07:10;97437.80;;;32.38
68027;BMP180;54819;48.030;14.710;2023-06-22T13:09:49;97440.40;;;32.50
68027;BMP180;54819;48.030;14.710;2023-06-22T13:12:22;97439.80;;;32.60
68027;BMP180;54819;48.030;14.710;2023-06-22T13:14:49;97445.00;;;32.70
68027;BMP180;54819;48.030;14.710;2023-06-22T13:17:16;97439.80;;;32.80
68027;BMP180;54819;48.030;14.710;2023-06-22T13:19:43;97440.40;;;32.80
68027;BMP180;54819;48.030;14.710;2023-06-22T13:24:55;97436.00;;;32.70
68027;BMP180;54819;48.030;14.710;2023-06-22T13:27:22;97430.40;;;32.60
68027;BMP180;54819;48.030;14.710;2023-06-22T13:29:50;97428.00;;;32.60
68027;BMP180;54819;48.030;14.710;2023-06-22T13:32:17;97419.60;;;32.58
68027;BMP180;54819;48.030;14.710;2023-06-22T13:34:44;97421.00;;;32.60
68027;BMP180;54819;48.030;14.710;2023-06-22T13:37:10;97420.60;;;32.60
68027;BMP180;54819;48.030;14.710;2023-06-22T13:39:37;97422.80;;;32.60
68027;BMP180;54819;48.030;14.710;2023-06-22T13:42:04;97420.80;;;32.50
68027;BMP180;54819;48.030;14.710;2023-06-22T13:44:31;97421.40;;;32.50
68027;BMP180;54819;48.030;14.710;2023-06-22T13:46:58;97414.80;;;32.50
68027;BMP180;54819;48.030;14.710;2023-06-22T13:49:24;97416.40;;;32.50
68027;BMP180;54819;48.030;14.710;2023-06-22T13:51:51;97414.60;;;32.58
68027;BMP180;54819;48.030;14.710;2023-06-22T13:54:17;97410.80;;;32.60
68027;BMP180;54819;48.030;14.710;2023-06-22T13:56:56;97407.00;;;32.60
68027;BMP180;54819;48.030;14.710;2023-06-22T13:59:22;97412.80;;;32.62
68027;BMP180;54819;48.030;14.710;2023-06-22T14:01:49;97408.20;;;32.68
68027;BMP180;54819;48.030;14.710;2023-06-22T14:04:16;97407.00;;;32.60
68027;BMP180;54819;48.030;14.710;2023-06-22T14:06:42;97405.00;;;32.60